createdAt,value
2019-03-28T00:00:09.544Z,23.90
2019-03-28T00:02:39.259Z,24.37
2019-03-28T00:05:08.753Z,23.77
2019-03-28T00:07:38.256Z,25.53
2019-03-28T00:10:07.571Z,25.87
2019-03-28T00:12:36.142Z,25.90
2019-03-28T00:15:06.839Z,26.83
2019-03-28T00:17:35.777Z,27.17
2019-03-28T00:20:06.095Z,27.93
2019-03-28T00:22:36.889Z,25.87
2019-03-28T00:25:07.574Z,26.10
2019-03-28T00:27:36.443Z,26.70
2019-03-28T00:30:07.214Z,26.27
2019-03-28T00:32:36.073Z,26.33
2019-03-28T00:35:06.494Z,26.83
2019-03-28T00:37:36.034Z,27.70
2019-03-28T00:40:08.141Z,26.53
2019-03-28T00:42:36.966Z,25.63
2019-03-28T00:45:07.751Z,25.20
2019-03-28T00:47:36.908Z,28.13
2019-03-28T00:50:08.205Z,26.63
2019-03-28T00:52:37.663Z,26.40
2019-03-28T00:55:07.765Z,28.93
2019-03-28T00:57:36.927Z,28.17
2019-03-28T01:00:07.723Z,26.60
2019-03-28T01:02:36.705Z,25.50
2019-03-28T01:05:06.933Z,27.13
2019-03-28T01:07:36.001Z,27.50
2019-03-28T01:10:05.917Z,25.83
2019-03-28T01:12:34.987Z,26.47
2019-03-28T01:15:05.030Z,26.80
2019-03-28T01:17:34.336Z,26.47
2019-03-28T01:20:03.380Z,27.70
2019-03-28T01:22:31.976Z,26.27
2019-03-28T01:25:01.820Z,27.47
2019-03-28T01:27:31.357Z,28.00
2019-03-28T01:30:00.338Z,27.80
2019-03-28T01:32:29.417Z,26.83
2019-03-28T01:34:58.368Z,27.03
2019-03-28T01:37:27.295Z,28.07
2019-03-28T01:39:56.290Z,26.30
2019-03-28T01:42:25.384Z,28.13
2019-03-28T01:44:54.278Z,25.97
2019-03-28T01:47:23.172Z,27.50
2019-03-28T01:49:52.369Z,28.73
2019-03-28T01:52:21.427Z,28.27
2019-03-28T01:54:50.363Z,27.13
2019-03-28T01:57:19.665Z,27.90
2019-03-28T01:59:48.789Z,26.33
2019-03-28T02:02:17.758Z,28.50
2019-03-28T02:04:46.679Z,27.33
2019-03-28T02:07:16.191Z,28.13
2019-03-28T02:09:44.908Z,27.80
2019-03-28T02:12:13.941Z,28.00
2019-03-28T02:14:42.840Z,29.27
2019-03-28T02:19:58.042Z,28.13
2019-03-28T02:22:27.060Z,28.97
2019-03-28T02:24:56.094Z,27.97
2019-03-28T02:27:25.987Z,28.97
2019-03-28T02:29:54.897Z,29.80
2019-03-28T02:32:23.829Z,29.23
2019-03-28T02:34:52.929Z,28.87
2019-03-28T02:37:22.286Z,29.07
2019-03-28T02:39:51.180Z,29.47
2019-03-28T02:42:20.127Z,30.50
2019-03-28T02:44:49.373Z,30.67
2019-03-28T02:47:18.067Z,30.63
2019-03-28T02:49:47.051Z,31.43
2019-03-28T02:52:15.995Z,30.90
2019-03-28T02:54:45.068Z,31.83
2019-03-28T02:57:14.253Z,29.87
2019-03-28T02:59:43.410Z,31.00
2019-03-28T03:02:12.991Z,31.47
2019-03-28T03:04:43.041Z,31.30
2019-03-28T03:07:12.229Z,32.47
2019-03-28T03:09:41.270Z,33.23
2019-03-28T03:12:10.486Z,31.23
2019-03-28T03:14:39.489Z,32.23
2019-03-28T03:17:08.506Z,32.47
2019-03-28T03:19:37.647Z,33.63
2019-03-28T03:22:06.910Z,33.73
2019-03-28T03:24:35.795Z,33.67
2019-03-28T03:27:05.052Z,33.97
2019-03-28T03:29:34.095Z,33.30
2019-03-28T03:32:03.203Z,33.43
2019-03-28T03:34:33.134Z,32.73
2019-03-28T03:37:03.800Z,32.33
2019-03-28T03:39:33.527Z,33.27
2019-03-28T03:42:02.648Z,34.23
2019-03-28T03:44:31.553Z,34.60
2019-03-28T03:47:00.917Z,32.67
2019-03-28T03:49:30.759Z,32.67
2019-03-28T03:52:00.125Z,33.03
2019-03-28T03:54:29.510Z,34.00
2019-03-28T03:56:58.665Z,32.70
2019-03-28T03:59:27.855Z,35.00
2019-03-28T04:01:57.298Z,35.13
2019-03-28T04:04:26.221Z,33.47
2019-03-28T04:06:55.318Z,32.90
2019-03-28T04:09:24.398Z,34.77
2019-03-28T04:11:53.965Z,33.73
2019-03-28T04:14:22.919Z,34.90
2019-03-28T04:16:52.109Z,32.10
2019-03-28T04:19:21.472Z,33.93
2019-03-28T04:21:50.734Z,34.20
2019-03-28T04:24:19.821Z,34.10
2019-03-28T04:26:49.077Z,32.57
2019-03-28T04:29:18.045Z,33.53
2019-03-28T04:31:47.478Z,34.20
2019-03-28T04:34:17.344Z,34.10
2019-03-28T04:36:46.331Z,33.73
2019-03-28T04:39:16.578Z,34.87
2019-03-28T04:41:46.063Z,32.93
2019-03-28T04:44:15.403Z,34.43
2019-03-28T04:46:45.325Z,33.73
2019-03-28T04:49:15.763Z,33.83
2019-03-28T04:51:45.180Z,32.60
2019-03-28T04:54:15.002Z,33.70
2019-03-28T04:56:44.261Z,32.67
2019-03-28T04:59:13.260Z,32.50
2019-03-28T05:01:42.369Z,32.10
2019-03-28T05:04:11.049Z,33.27
2019-03-28T05:06:40.349Z,32.93
2019-03-28T05:09:09.094Z,32.77
2019-03-28T05:11:38.641Z,33.90
2019-03-28T05:14:07.323Z,32.13
2019-03-28T05:16:36.740Z,32.30
2019-03-28T05:19:05.496Z,32.73
2019-03-28T05:21:34.972Z,33.23
2019-03-28T05:24:03.662Z,33.73
2019-03-28T05:26:33.101Z,31.53
2019-03-28T05:29:01.845Z,33.87
2019-03-28T05:31:30.724Z,33.13
2019-03-28T05:33:59.398Z,33.70
2019-03-28T05:36:27.975Z,32.67
2019-03-28T05:38:56.879Z,34.33
2019-03-28T05:41:26.367Z,33.53
2019-03-28T05:43:55.097Z,33.43
2019-03-28T05:46:25.897Z,33.27
2019-03-28T05:48:55.204Z,33.43
2019-03-28T05:51:23.981Z,35.33
2019-03-28T05:53:53.419Z,34.97
2019-03-28T05:56:22.152Z,35.17
2019-03-28T05:58:51.013Z,34.27
2019-03-28T06:01:19.596Z,34.33
2019-03-28T06:03:48.478Z,34.73
2019-03-28T06:06:18.377Z,34.33
2019-03-28T06:08:48.067Z,33.80
2019-03-28T06:11:16.813Z,32.93
2019-03-28T06:13:46.259Z,32.93
2019-03-28T06:16:14.917Z,33.23
2019-03-28T06:18:44.023Z,33.33
2019-03-28T06:21:13.090Z,33.83
2019-03-28T06:23:42.674Z,33.20
2019-03-28T06:26:11.277Z,31.90
2019-03-28T06:28:40.101Z,34.10
2019-03-28T06:31:08.827Z,32.40
2019-03-28T06:33:38.531Z,33.57
2019-03-28T06:36:08.214Z,33.50
2019-03-28T06:38:37.070Z,31.43
2019-03-28T06:41:05.762Z,32.00
2019-03-28T06:43:34.564Z,32.10
2019-03-28T06:46:04.017Z,33.07
2019-03-28T06:48:32.886Z,31.23
2019-03-28T06:51:02.384Z,32.67
2019-03-28T06:53:31.164Z,31.90
2019-03-28T06:56:00.561Z,32.90
2019-03-28T06:58:29.398Z,31.70
2019-03-28T07:00:58.330Z,32.00
2019-03-28T07:03:27.684Z,31.03
2019-03-28T07:05:56.867Z,31.13
2019-03-28T07:08:25.718Z,31.00
2019-03-28T07:10:57.794Z,32.20
2019-03-28T07:13:25.277Z,29.00
2019-03-28T07:15:53.926Z,30.57
2019-03-28T07:18:23.328Z,31.50
2019-03-28T07:20:52.439Z,28.70
2019-03-28T07:23:22.206Z,29.27
2019-03-28T07:25:51.640Z,29.97
2019-03-28T07:28:20.750Z,30.27
2019-03-28T07:30:49.627Z,29.43
2019-03-28T07:33:18.746Z,28.77
2019-03-28T07:35:47.916Z,30.20
2019-03-28T07:38:16.732Z,29.87
2019-03-28T07:40:45.468Z,28.60
2019-03-28T07:43:14.474Z,28.37
2019-03-28T07:45:43.512Z,27.87
2019-03-28T07:48:12.901Z,28.47
2019-03-28T07:50:42.778Z,26.87
2019-03-28T07:53:11.956Z,26.93
2019-03-28T07:55:40.876Z,26.60
2019-03-28T07:58:09.667Z,26.47
2019-03-28T08:00:38.611Z,26.47
2019-03-28T08:03:07.857Z,26.83
2019-03-28T08:05:36.982Z,25.50
2019-03-28T08:08:05.949Z,27.10
2019-03-28T08:10:34.814Z,25.30
2019-03-28T08:13:04.396Z,26.77
2019-03-28T08:15:33.311Z,26.90
2019-03-28T08:18:02.238Z,26.20
2019-03-28T08:20:31.303Z,25.77
2019-03-28T08:23:00.519Z,25.47
2019-03-28T08:25:29.493Z,27.13
2019-03-28T08:27:58.150Z,26.77
2019-03-28T08:30:35.942Z,25.80
2019-03-28T08:33:06.158Z,26.43
2019-03-28T08:35:36.802Z,26.83
2019-03-28T08:38:09.783Z,25.50
2019-03-28T08:40:40.063Z,27.30
2019-03-28T08:43:09.951Z,25.63
2019-03-28T08:45:39.614Z,26.37
2019-03-28T08:48:08.464Z,25.97
2019-03-28T08:50:37.358Z,25.90
2019-03-28T08:53:06.317Z,26.53
2019-03-28T08:55:34.989Z,25.67
2019-03-28T08:58:04.368Z,27.17
2019-03-28T09:00:50.216Z,26.60
2019-03-28T09:03:03.604Z,26.20
2019-03-28T09:05:33.421Z,28.73
2019-03-28T09:08:02.296Z,27.50
2019-03-28T09:10:31.382Z,27.27
2019-03-28T09:13:00.097Z,26.07
2019-03-28T09:15:42.687Z,26.70
2019-03-28T09:18:00.360Z,27.10
2019-03-28T09:20:29.793Z,26.13
2019-03-28T09:22:58.765Z,27.73
2019-03-28T09:25:28.004Z,26.93
2019-03-28T09:27:56.855Z,26.33
2019-03-28T09:30:47.518Z,25.73
2019-03-28T09:33:07.650Z,26.43
2019-03-28T09:35:36.797Z,26.80
2019-03-28T09:38:05.418Z,27.07
2019-03-28T09:40:34.861Z,26.73
2019-03-28T09:43:04.015Z,25.90
2019-03-28T09:45:33.169Z,26.53
2019-03-28T09:48:02.499Z,25.40
2019-03-28T09:50:32.054Z,26.07
2019-03-28T09:53:01.282Z,26.43
2019-03-28T09:55:30.731Z,25.43
2019-03-28T09:57:59.830Z,25.70
2019-03-28T10:00:32.451Z,23.63
2019-03-28T10:03:00.478Z,23.57
2019-03-28T10:05:29.867Z,24.63
2019-03-28T10:07:59.321Z,23.63
2019-03-28T10:10:28.644Z,23.60
2019-03-28T10:12:57.872Z,23.50
2019-03-28T10:15:27.248Z,22.67
2019-03-28T10:17:56.475Z,23.60
2019-03-28T10:20:25.618Z,22.60
2019-03-28T10:22:55.379Z,23.07
2019-03-28T10:25:24.375Z,22.63
2019-03-28T10:27:53.548Z,24.03
2019-03-28T10:30:28.097Z,21.60
2019-03-28T10:32:57.207Z,20.73
2019-03-28T10:35:29.548Z,23.80
2019-03-28T10:37:59.000Z,20.67
2019-03-28T10:40:28.335Z,22.87
2019-03-28T10:42:57.588Z,21.67
2019-03-28T10:45:26.722Z,20.73
2019-03-28T10:47:56.007Z,20.53
2019-03-28T10:50:39.820Z,21.67
2019-03-28T10:52:56.357Z,22.07
2019-03-28T10:55:25.367Z,21.77
2019-03-28T10:57:54.974Z,20.27
2019-03-28T11:00:25.244Z,21.30
2019-03-28T11:02:54.805Z,20.50
2019-03-28T11:05:23.488Z,19.80
2019-03-28T11:07:52.801Z,19.92
2019-03-28T11:10:22.106Z,19.03
2019-03-28T11:12:51.324Z,21.37
2019-03-28T11:15:20.642Z,21.35
2019-03-28T11:17:49.931Z,19.17
2019-03-28T11:20:19.588Z,19.50
2019-03-28T11:22:48.804Z,19.35
2019-03-28T11:25:18.058Z,20.43
2019-03-28T11:27:47.684Z,18.15
2019-03-28T11:30:18.500Z,18.35
2019-03-28T11:32:47.866Z,16.15
2019-03-28T11:35:17.136Z,16.17
2019-03-28T11:37:47.383Z,16.10
2019-03-28T11:40:17.167Z,16.00
2019-03-28T11:42:46.486Z,15.88
2019-03-28T11:45:15.825Z,14.58
2019-03-28T11:47:45.130Z,15.40
2019-03-28T11:50:17.102Z,17.15
2019-03-28T11:52:45.205Z,17.05
2019-03-28T11:55:14.584Z,17.55
2019-03-28T11:57:44.120Z,15.98
2019-03-28T12:00:16.454Z,16.12
2019-03-28T12:02:45.910Z,15.40
2019-03-28T12:05:15.853Z,15.30
2019-03-28T12:07:45.211Z,16.73
2019-03-28T12:10:14.638Z,15.80
2019-03-28T12:12:44.078Z,13.58
2019-03-28T12:15:13.642Z,13.58
2019-03-28T12:17:43.391Z,14.07
2019-03-28T12:20:12.538Z,13.62
2019-03-28T12:22:42.765Z,13.78
2019-03-28T12:25:12.376Z,13.22
2019-03-28T12:27:41.608Z,13.08
2019-03-28T12:30:15.777Z,13.53
2019-03-28T12:32:43.484Z,13.75
2019-03-28T12:35:13.174Z,12.93
2019-03-28T12:37:42.522Z,13.30
2019-03-28T12:40:11.903Z,13.05
2019-03-28T12:42:41.412Z,11.88
2019-03-28T12:45:15.065Z,10.63
2019-03-28T12:47:44.651Z,11.33
2019-03-28T12:50:15.017Z,10.80
2019-03-28T12:52:45.020Z,11.28
2019-03-28T12:55:14.138Z,12.05
2019-03-28T12:57:43.775Z,11.93
2019-03-28T13:00:14.271Z,10.60
2019-03-28T13:02:43.762Z,10.10
2019-03-28T13:05:13.265Z,10.13
2019-03-28T13:07:42.582Z,9.30
2019-03-28T13:10:12.160Z,9.70
2019-03-28T13:12:41.928Z,9.23
2019-03-28T13:15:11.168Z,11.07
2019-03-28T13:17:39.966Z,10.87
2019-03-28T13:20:09.849Z,9.90
2019-03-28T13:22:39.043Z,9.67
2019-03-28T13:25:08.489Z,8.50
2019-03-28T13:27:38.010Z,8.43
2019-03-28T13:30:10.794Z,7.50
2019-03-28T13:32:42.240Z,6.83
2019-03-28T13:35:11.678Z,7.00
2019-03-28T13:37:40.256Z,7.93
2019-03-28T13:40:09.856Z,7.67
2019-03-28T13:42:39.463Z,7.80
2019-03-28T13:45:12.043Z,8.77
2019-03-28T13:47:41.595Z,8.83
2019-03-28T13:50:11.971Z,8.10
2019-03-28T13:52:40.863Z,6.27
2019-03-28T13:55:10.372Z,6.70
2019-03-28T13:57:39.633Z,6.83
2019-03-28T14:00:09.648Z,6.33
2019-03-28T14:02:38.953Z,7.50
2019-03-28T14:05:09.131Z,6.37
2019-03-28T14:07:38.276Z,6.57
2019-03-28T14:10:08.714Z,6.40
2019-03-28T14:12:38.167Z,6.60
2019-03-28T14:15:07.796Z,6.40
2019-03-28T14:17:36.819Z,5.97
2019-03-28T14:20:08.949Z,6.43
2019-03-28T14:22:38.623Z,5.60
2019-03-28T14:25:07.901Z,5.87
2019-03-28T14:27:37.582Z,5.83
2019-03-28T14:30:09.692Z,5.67
2019-03-28T14:32:52.115Z,5.77
2019-03-28T14:35:09.572Z,6.53
2019-03-28T14:37:40.750Z,5.83
2019-03-28T14:40:10.267Z,6.23
2019-03-28T14:42:40.727Z,6.43
2019-03-28T14:45:10.055Z,6.23
2019-03-28T14:47:38.947Z,5.37
2019-03-28T14:50:09.767Z,6.20
2019-03-28T14:52:38.841Z,5.90
2019-03-28T14:55:08.685Z,5.57
2019-03-28T14:57:37.641Z,6.13
2019-03-28T15:00:09.979Z,6.87
2019-03-28T15:02:38.735Z,6.27
2019-03-28T15:05:07.839Z,6.90
2019-03-28T15:07:36.903Z,6.07
2019-03-28T15:10:07.227Z,5.97
2019-03-28T15:12:36.592Z,5.60
2019-03-28T15:15:06.383Z,6.00
2019-03-28T15:17:35.345Z,5.73
2019-03-28T15:20:05.933Z,6.23
2019-03-28T15:22:35.595Z,4.90
2019-03-28T15:25:05.901Z,5.17
2019-03-28T15:27:35.426Z,5.30
2019-03-28T15:30:08.380Z,5.97
2019-03-28T15:32:37.434Z,6.80
2019-03-28T15:35:06.574Z,6.40
2019-03-28T15:37:35.521Z,5.77
2019-03-28T15:40:08.496Z,6.00
2019-03-28T15:42:37.631Z,6.00
2019-03-28T15:45:07.417Z,5.43
2019-03-28T15:47:37.181Z,6.00
2019-03-28T15:50:06.742Z,5.73
2019-03-28T15:52:35.752Z,5.47
2019-03-28T15:55:05.701Z,5.63
2019-03-28T15:57:35.785Z,5.60
2019-03-28T16:00:07.555Z,5.63
2019-03-28T16:02:36.135Z,5.90
2019-03-28T16:05:06.223Z,5.80
2019-03-28T16:07:34.925Z,5.03
2019-03-28T16:10:04.794Z,4.83
2019-03-28T16:12:33.814Z,5.60
2019-03-28T16:15:05.350Z,5.23
2019-03-28T16:17:34.103Z,4.30
2019-03-28T16:20:03.380Z,4.40
2019-03-28T16:22:32.881Z,4.40
2019-03-28T16:25:01.743Z,4.30
2019-03-28T16:27:30.958Z,4.70
2019-03-28T16:30:00.027Z,4.13
2019-03-28T16:32:29.532Z,3.97
2019-03-28T16:34:58.807Z,3.50
2019-03-28T16:37:28.455Z,3.90
2019-03-28T16:39:57.277Z,3.30
2019-03-28T16:42:26.481Z,4.40
2019-03-28T16:44:55.528Z,3.70
2019-03-28T16:47:24.262Z,3.90
2019-03-28T16:49:53.129Z,3.70
2019-03-28T16:52:21.725Z,4.80
2019-03-28T16:54:51.044Z,4.57
2019-03-28T16:57:20.669Z,4.73
2019-03-28T16:59:50.228Z,3.73
2019-03-28T17:02:19.383Z,3.67
2019-03-28T17:04:49.709Z,3.23
2019-03-28T17:07:18.841Z,4.00
2019-03-28T17:09:47.858Z,4.33
2019-03-28T17:12:17.121Z,3.87
2019-03-28T17:14:48.085Z,3.87
2019-03-28T17:17:17.676Z,4.50
2019-03-28T17:19:47.136Z,4.20
2019-03-28T17:22:16.797Z,4.23
2019-03-28T17:24:46.367Z,4.70
2019-03-28T17:27:15.213Z,4.50
2019-03-28T17:29:44.671Z,5.47
2019-03-28T17:32:13.567Z,5.53
2019-03-28T17:34:45.824Z,5.03
2019-03-28T17:37:14.022Z,5.20
2019-03-28T17:39:43.352Z,5.27
2019-03-28T17:42:12.411Z,4.77
2019-03-28T17:44:41.525Z,4.27
2019-03-28T17:47:10.752Z,4.80
2019-03-28T17:49:40.607Z,5.13
2019-03-28T17:52:10.130Z,4.87
2019-03-28T17:54:39.337Z,4.00
2019-03-28T17:57:08.480Z,4.70
2019-03-28T17:59:38.254Z,4.20
2019-03-28T18:02:07.274Z,4.67
2019-03-28T18:04:47.421Z,4.97
2019-03-28T18:07:07.750Z,4.60
2019-03-28T18:09:37.740Z,4.20
2019-03-28T18:12:06.825Z,4.07
2019-03-28T18:14:35.863Z,4.80
2019-03-28T18:17:05.395Z,4.40
2019-03-28T18:19:34.953Z,4.33
2019-03-28T18:22:04.297Z,4.67
2019-03-28T18:24:34.478Z,4.83
2019-03-28T18:27:03.825Z,5.03
2019-03-28T18:29:35.835Z,5.03
2019-03-28T18:32:03.635Z,4.70
2019-03-28T18:34:34.748Z,5.33
2019-03-28T18:37:03.948Z,4.40
2019-03-28T18:39:32.759Z,4.93
2019-03-28T18:42:02.343Z,4.37
2019-03-28T18:44:32.046Z,4.80
2019-03-28T18:47:01.188Z,4.03
2019-03-28T18:49:30.961Z,4.43
2019-03-28T18:52:00.797Z,4.60
2019-03-28T18:54:29.778Z,5.00
2019-03-28T18:56:59.151Z,4.80
2019-03-28T18:59:28.066Z,4.37
2019-03-28T19:01:57.496Z,4.53
2019-03-28T19:04:27.517Z,4.33
2019-03-28T19:06:57.739Z,4.37
2019-03-28T19:09:27.501Z,4.73
2019-03-28T19:11:57.130Z,4.20
2019-03-28T19:14:26.411Z,4.63
2019-03-28T19:17:00.912Z,4.67
2019-03-28T19:19:39.264Z,4.73
2019-03-28T19:22:01.172Z,4.33
2019-03-28T19:24:30.030Z,5.50
2019-03-28T19:26:59.118Z,4.67
2019-03-28T19:29:27.921Z,4.93
2019-03-28T19:31:56.917Z,4.00
2019-03-28T19:34:26.076Z,4.03
2019-03-28T19:36:57.017Z,4.77
2019-03-28T19:39:31.669Z,4.63
2019-03-28T19:42:04.236Z,5.70
2019-03-28T19:44:31.987Z,5.40
2019-03-28T19:47:01.383Z,4.43
2019-03-28T19:49:30.847Z,4.37
2019-03-28T19:52:00.327Z,5.00
2019-03-28T19:54:30.066Z,5.00
2019-03-28T19:56:59.926Z,5.57
2019-03-28T19:59:28.721Z,6.00
2019-03-28T20:01:57.520Z,4.97
2019-03-28T20:04:26.772Z,5.03
2019-03-28T20:06:55.589Z,5.27
2019-03-28T20:09:24.575Z,5.30
2019-03-28T20:11:53.406Z,5.50
2019-03-28T20:14:23.528Z,5.50
2019-03-28T20:16:53.792Z,4.83
2019-03-28T20:19:23.334Z,6.73
2019-03-28T20:21:51.975Z,5.80
2019-03-28T20:24:21.324Z,6.03
2019-03-28T20:26:50.013Z,5.30
2019-03-28T20:29:18.967Z,5.47
2019-03-28T20:31:48.281Z,5.70
2019-03-28T20:34:17.070Z,6.40
2019-03-28T20:36:46.509Z,5.43
2019-03-28T20:39:15.489Z,5.93
2019-03-28T20:41:44.546Z,5.93
2019-03-28T20:44:14.164Z,5.33
2019-03-28T20:46:43.178Z,5.70
2019-03-28T20:49:12.317Z,5.40
2019-03-28T20:51:41.691Z,5.50
2019-03-28T20:54:11.093Z,5.50
2019-03-28T20:56:40.017Z,5.27
2019-03-28T20:59:09.272Z,5.97
2019-03-28T21:01:38.145Z,5.60
2019-03-28T21:04:08.764Z,5.37
2019-03-28T21:06:38.447Z,5.97
2019-03-28T21:09:08.408Z,5.90
2019-03-28T21:11:38.922Z,6.50
2019-03-28T21:14:07.888Z,6.40
2019-03-28T21:16:38.060Z,5.93
2019-03-28T21:19:07.689Z,5.63
2019-03-28T21:21:37.184Z,4.90
2019-03-28T21:24:06.208Z,6.13
2019-03-28T21:26:35.274Z,5.83
2019-03-28T21:29:04.618Z,6.10
2019-03-28T21:31:34.460Z,5.93
2019-03-28T21:34:03.554Z,6.37
2019-03-28T21:36:32.944Z,6.77
2019-03-28T21:39:02.065Z,6.17
2019-03-28T21:41:31.356Z,7.07
2019-03-28T21:44:00.373Z,6.93
2019-03-28T21:46:29.511Z,6.90
2019-03-28T21:48:59.250Z,6.87
2019-03-28T21:51:28.243Z,7.20
2019-03-28T21:53:58.284Z,7.90
2019-03-28T21:56:28.213Z,7.80
2019-03-28T21:58:58.161Z,7.53
2019-03-28T22:01:27.917Z,7.47
2019-03-28T22:03:57.660Z,7.50
2019-03-28T22:06:27.304Z,7.83
2019-03-28T22:08:56.792Z,8.33
2019-03-28T22:11:26.278Z,8.40
2019-03-28T22:13:55.902Z,8.83
2019-03-28T22:16:25.639Z,8.50
2019-03-28T22:18:55.014Z,8.27
2019-03-28T22:21:27.252Z,8.40
2019-03-28T22:23:55.330Z,8.73
2019-03-28T22:26:24.614Z,8.88
2019-03-28T22:28:54.085Z,8.97
2019-03-28T22:31:23.678Z,8.20
2019-03-28T22:33:52.718Z,9.03
2019-03-28T22:36:22.066Z,8.57
2019-03-28T22:38:51.209Z,8.90
2019-03-28T22:41:20.368Z,9.57
2019-03-28T22:43:49.823Z,9.23
2019-03-28T22:46:19.598Z,8.80
2019-03-28T22:48:48.857Z,9.33
2019-03-28T22:51:17.852Z,11.23
2019-03-28T22:53:47.274Z,10.97
2019-03-28T22:56:16.699Z,10.13
2019-03-28T22:58:45.674Z,10.83
2019-03-28T23:01:15.405Z,10.83
2019-03-28T23:03:44.601Z,10.23
2019-03-28T23:06:14.093Z,10.40
2019-03-28T23:08:43.235Z,9.83
2019-03-28T23:11:13.860Z,10.80
2019-03-28T23:13:43.301Z,10.10
2019-03-28T23:16:12.661Z,10.37
2019-03-28T23:18:42.022Z,10.87
2019-03-28T23:21:11.572Z,11.00
2019-03-28T23:23:40.954Z,11.57
2019-03-28T23:26:10.792Z,11.60
2019-03-28T23:28:40.100Z,10.90
2019-03-28T23:31:09.709Z,10.80
2019-03-28T23:33:38.987Z,11.67
2019-03-28T23:36:08.429Z,11.53
2019-03-28T23:38:38.062Z,12.23
2019-03-28T23:41:07.507Z,12.00
2019-03-28T23:43:36.725Z,12.93
2019-03-28T23:46:06.322Z,12.57
2019-03-28T23:48:35.579Z,12.00
2019-03-28T23:51:05.288Z,12.10
2019-03-28T23:53:36.965Z,12.13
2019-03-28T23:56:06.318Z,12.93
2019-03-28T23:58:35.646Z,11.80
